createdAt,value
2023-04-27T19:51:50.645Z,2.63
2023-04-27T19:54:17.911Z,2.92
2023-04-27T19:56:45.280Z,2.63
2023-04-27T19:59:12.528Z,2.40
2023-04-27T20:01:39.565Z,2.20
2023-04-27T20:04:07.032Z,2.20
2023-04-27T20:06:34.754Z,2.42
2023-04-27T20:09:01.803Z,2.58
2023-04-27T20:11:28.890Z,3.05
2023-04-27T20:13:55.988Z,2.38
2023-04-27T20:16:25.861Z,2.38
2023-04-27T20:18:53.013Z,2.55
2023-04-27T20:21:21.730Z,2.50
2023-04-27T20:23:49.254Z,3.13
2023-04-27T20:26:16.337Z,2.78
2023-04-27T20:28:43.701Z,3.80
2023-04-27T20:31:11.138Z,2.90
2023-04-27T20:33:38.212Z,2.65
2023-04-27T20:36:14.282Z,3.13
2023-04-27T20:38:45.009Z,2.88
2023-04-27T20:41:15.109Z,2.50
2023-04-27T20:43:42.258Z,3.00
2023-04-27T20:46:11.963Z,4.00
2023-04-27T20:48:39.437Z,4.00
2023-04-27T20:51:06.676Z,4.47
2023-04-27T20:53:33.877Z,4.78
2023-04-27T20:56:00.930Z,3.65
2023-04-27T20:58:28.176Z,4.15
2023-04-27T21:00:55.422Z,4.03
2023-04-27T21:03:23.070Z,3.50
2023-04-27T21:05:50.564Z,3.58
2023-04-27T21:08:18.113Z,4.38
2023-04-27T21:10:45.254Z,3.35
2023-04-27T21:13:12.420Z,3.40
2023-04-27T21:15:39.707Z,3.05
2023-04-27T21:18:13.442Z,2.88
2023-04-27T21:20:46.453Z,3.03
2023-04-27T21:23:15.085Z,2.60
2023-04-27T21:32:51.349Z,2.92
2023-04-27T21:35:18.757Z,3.25
2023-04-27T21:37:45.874Z,2.53
2023-04-27T21:40:13.412Z,3.45
2023-04-27T21:42:41.062Z,2.85
2023-04-27T21:45:08.939Z,3.42
2023-04-27T21:47:36.070Z,3.03
2023-04-27T21:50:03.697Z,3.58
2023-04-27T21:52:30.892Z,2.97
2023-04-27T21:54:58.249Z,3.42
2023-04-27T21:57:25.752Z,2.47
2023-04-27T21:59:52.864Z,3.08
2023-04-27T22:02:20.035Z,2.65
2023-04-27T22:04:49.455Z,2.50
2023-04-27T22:07:16.557Z,2.88
2023-04-27T22:09:43.976Z,3.50
2023-04-27T22:12:11.258Z,3.38
2023-04-27T22:14:38.610Z,2.90
2023-04-27T22:17:05.760Z,3.10
2023-04-27T22:19:32.812Z,3.28
2023-04-27T22:21:59.978Z,3.40
2023-04-27T22:24:27.108Z,4.07
2023-04-27T22:26:54.263Z,2.63
2023-04-27T22:29:21.365Z,3.20
2023-04-27T22:31:48.596Z,2.67
2023-04-27T22:34:16.299Z,2.58
2023-04-27T22:36:43.574Z,3.03
2023-04-27T22:39:10.683Z,3.03
2023-04-27T22:41:37.883Z,2.63
2023-04-27T22:44:05.535Z,2.78
2023-04-27T22:46:32.980Z,2.90
2023-04-27T22:49:01.723Z,2.83
2023-04-27T22:51:28.929Z,3.25
2023-04-27T22:53:56.179Z,2.65
2023-04-27T22:56:23.330Z,2.58
2023-04-27T22:58:50.434Z,3.00
2023-04-27T23:01:17.561Z,2.80
2023-04-27T23:03:44.802Z,2.38
2023-04-27T23:06:14.792Z,3.40
2023-04-27T23:08:44.030Z,2.75
2023-04-27T23:11:13.992Z,2.72
2023-04-27T23:13:41.165Z,2.55
2023-04-27T23:16:10.344Z,3.13
2023-04-27T23:18:37.615Z,2.58
2023-04-27T23:21:04.798Z,2.88
2023-04-27T23:23:32.274Z,2.50
2023-04-27T23:25:59.283Z,2.33
2023-04-27T23:28:26.400Z,2.00
2023-04-27T23:30:54.930Z,2.47
2023-04-27T23:33:22.655Z,1.73
2023-04-27T23:35:50.049Z,2.25
2023-04-27T23:38:17.202Z,2.67
2023-04-27T23:40:44.370Z,2.45
2023-04-27T23:43:12.011Z,2.30
2023-04-27T23:45:39.217Z,2.90
2023-04-27T23:48:06.893Z,2.80
2023-04-27T23:50:34.130Z,2.38
2023-04-27T23:53:01.397Z,2.00
2023-04-27T23:55:28.475Z,2.15
2023-04-27T23:57:56.513Z,2.72
